createdAt,value
2018-01-16T00:00:29.330Z,96.41
2018-01-16T00:01:09.839Z,96.65
2018-01-16T00:01:50.396Z,96.89
2018-01-16T00:02:31.763Z,96.98
2018-01-16T00:03:12.308Z,96.7
2018-01-16T00:03:52.866Z,96.51
2018-01-16T00:04:33.405Z,96.51
2018-01-16T00:05:13.956Z,96.89
2018-01-16T00:05:54.536Z,96.89
2018-01-16T00:06:35.118Z,96.41
2018-01-16T00:07:15.622Z,96.79
2018-01-16T00:07:56.213Z,96.22
2018-01-16T00:08:36.782Z,96.22
2018-01-16T00:09:17.290Z,95.94
2018-01-16T00:09:57.812Z,96.22
2018-01-16T00:10:38.445Z,96.03
2018-01-16T00:11:18.916Z,95.65
2018-01-16T00:11:59.548Z,95.94
2018-01-16T00:12:40.046Z,96.12
2018-01-16T00:13:20.618Z,96.31
2018-01-16T00:14:01.126Z,96.31
2018-01-16T00:14:41.718Z,96.31
2018-01-16T00:15:22.248Z,95.94
2018-01-16T00:16:02.770Z,96.12
2018-01-16T00:16:43.322Z,96.22
2018-01-16T00:17:23.844Z,96.22
2018-01-16T00:18:04.406Z,95.94
2018-01-16T00:18:44.893Z,96.7
2018-01-16T00:19:25.446Z,96.6
2018-01-16T00:20:05.988Z,96.41
2018-01-16T00:20:46.496Z,97.08
2018-01-16T00:21:27.042Z,97.36
2018-01-16T00:22:07.579Z,97.84
2018-01-16T00:22:48.100Z,97.74
2018-01-16T00:23:28.688Z,97.84
2018-01-16T00:24:09.208Z,97.84
2018-01-16T00:24:49.788Z,97.74
2018-01-16T00:25:30.286Z,97.46
2018-01-16T00:26:10.807Z,97.65
2018-01-16T00:26:51.377Z,98.41
2018-01-16T00:27:31.955Z,98.13
2018-01-16T00:28:12.416Z,98.41
2018-01-16T00:28:53.011Z,98.03
2018-01-16T00:29:33.554Z,98.5
2018-01-16T00:30:14.022Z,98.98
2018-01-16T00:30:54.589Z,98.98
2018-01-16T00:31:35.118Z,98.41
2018-01-16T00:32:15.697Z,98.41
2018-01-16T00:32:56.226Z,98.5
2018-01-16T00:33:36.782Z,98.88
2018-01-16T00:34:17.341Z,99.17
2018-01-16T00:34:57.860Z,98.88
2018-01-16T00:35:38.476Z,99.17
2018-01-16T00:36:19.008Z,99.08
2018-01-16T00:36:59.527Z,99.46
2018-01-16T00:37:40.061Z,99.84
2018-01-16T00:38:20.721Z,99.84
2018-01-16T00:39:01.281Z,99.46
2018-01-16T00:39:41.798Z,99.84
2018-01-16T00:40:22.394Z,99.99
2018-01-16T00:41:02.942Z,99.99
2018-01-16T00:41:43.487Z,99.84
2018-01-16T00:42:24.020Z,99.99
2018-01-16T00:43:04.596Z,99.99
2018-01-16T00:43:45.141Z,99.99
2018-01-16T00:44:25.654Z,99.99
2018-01-16T00:45:06.183Z,99.99
2018-01-16T00:45:46.682Z,99.99
2018-01-16T00:46:27.246Z,99.99
2018-01-16T00:47:07.818Z,99.99
2018-01-16T00:47:48.351Z,99.99
2018-01-16T00:48:28.896Z,99.99
2018-01-16T00:49:09.421Z,99.99
2018-01-16T00:49:49.956Z,99.99
2018-01-16T00:50:30.479Z,99.99
2018-01-16T00:51:11.055Z,99.99
2018-01-16T00:51:51.556Z,99.99
2018-01-16T00:52:32.116Z,99.99
2018-01-16T00:53:12.611Z,99.99
2018-01-16T00:53:53.152Z,99.99
2018-01-16T00:54:33.636Z,99.99
2018-01-16T00:55:14.198Z,99.99
2018-01-16T00:55:54.734Z,99.99
2018-01-16T00:56:35.308Z,99.99
2018-01-16T00:57:15.818Z,99.99
2018-01-16T00:57:56.319Z,99.99
2018-01-16T00:58:36.887Z,99.99
2018-01-16T00:59:17.510Z,99.99
2018-01-16T00:59:58.041Z,99.99
2018-01-16T01:00:38.590Z,99.99
2018-01-16T01:01:19.153Z,99.99
2018-01-16T01:01:59.698Z,99.99
2018-01-16T01:02:40.238Z,99.99
2018-01-16T01:03:20.705Z,99.99
2018-01-16T01:04:01.247Z,99.99
2018-01-16T01:04:41.789Z,99.99
2018-01-16T01:05:22.348Z,99.99
2018-01-16T01:06:02.889Z,99.99
2018-01-16T01:06:43.393Z,99.99
2018-01-16T01:07:23.920Z,99.99
2018-01-16T01:08:04.463Z,99.99
2018-01-16T01:08:44.993Z,99.99
2018-01-16T01:09:25.543Z,99.99
2018-01-16T01:10:06.030Z,99.99
2018-01-16T01:10:46.563Z,99.99
2018-01-16T01:11:27.116Z,99.99
2018-01-16T01:12:07.609Z,99.99
2018-01-16T01:12:48.122Z,99.99
2018-01-16T01:13:28.659Z,99.99
2018-01-16T01:14:09.201Z,99.99
2018-01-16T01:14:49.748Z,99.99
2018-01-16T01:15:30.284Z,99.99
2018-01-16T01:16:10.775Z,99.99
2018-01-16T01:16:51.333Z,99.99
2018-01-16T01:17:31.821Z,99.99
2018-01-16T01:18:12.399Z,99.99
2018-01-16T01:18:52.885Z,99.99
2018-01-16T01:19:33.505Z,99.99
2018-01-16T01:20:13.988Z,99.99
2018-01-16T01:20:54.565Z,99.99
2018-01-16T01:21:35.085Z,99.99
2018-01-16T01:22:15.700Z,99.99
2018-01-16T01:22:56.236Z,99.99
2018-01-16T01:23:36.780Z,99.99
2018-01-16T01:24:17.324Z,99.99
2018-01-16T01:24:57.894Z,99.99
2018-01-16T01:25:38.426Z,99.99
2018-01-16T01:26:18.974Z,99.99
2018-01-16T01:26:59.517Z,99.99
2018-01-16T01:27:40.047Z,99.99
2018-01-16T01:28:20.521Z,99.99
2018-01-16T01:29:01.065Z,99.99
2018-01-16T01:29:41.603Z,99.99
2018-01-16T01:30:22.093Z,99.99
2018-01-16T01:31:02.637Z,99.99
2018-01-16T01:31:43.167Z,99.99
2018-01-16T01:32:23.793Z,99.99
2018-01-16T01:33:04.315Z,99.99
2018-01-16T01:33:44.866Z,99.99
2018-01-16T01:34:25.470Z,99.99
2018-01-16T01:35:05.973Z,99.99
2018-01-16T01:35:46.517Z,99.99
2018-01-16T01:36:27.049Z,99.99
2018-01-16T01:37:07.627Z,99.99
2018-01-16T01:37:48.100Z,99.99
2018-01-16T01:38:28.654Z,99.99
2018-01-16T01:39:09.176Z,99.99
2018-01-16T01:39:49.758Z,99.99
2018-01-16T01:40:30.259Z,99.99
2018-01-16T01:41:10.797Z,99.99
2018-01-16T01:41:51.324Z,99.99
2018-01-16T01:42:31.823Z,99.99
2018-01-16T01:43:12.408Z,99.99
2018-01-16T01:43:52.929Z,99.99
2018-01-16T01:44:33.474Z,99.99
2018-01-16T01:45:14.066Z,99.99
2018-01-16T01:45:54.561Z,99.99
2018-01-16T01:46:35.095Z,99.99
2018-01-16T01:47:15.644Z,99.99
2018-01-16T01:47:56.205Z,99.99
2018-01-16T01:48:36.724Z,99.99
2018-01-16T01:49:17.303Z,99.99
2018-01-16T01:49:57.869Z,99.99
2018-01-16T01:50:38.381Z,99.99
2018-01-16T01:51:18.904Z,99.99
2018-01-16T01:51:59.451Z,99.99
2018-01-16T01:52:39.984Z,99.99
2018-01-16T01:53:20.498Z,99.99
2018-01-16T01:54:01.052Z,99.99
2018-01-16T01:54:41.522Z,99.99
2018-01-16T01:55:22.073Z,99.99
2018-01-16T01:56:02.554Z,99.99
2018-01-16T01:56:43.131Z,99.99
2018-01-16T01:57:23.653Z,99.99
2018-01-16T01:58:04.202Z,99.99
2018-01-16T01:58:44.739Z,99.99
2018-01-16T01:59:25.339Z,99.99
2018-01-16T02:00:05.896Z,99.99
2018-01-16T02:00:46.408Z,99.99
2018-01-16T02:01:26.930Z,99.99
2018-01-16T02:02:07.676Z,99.99
2018-01-16T02:02:48.224Z,99.99
2018-01-16T02:03:28.755Z,99.99
2018-01-16T02:04:09.357Z,99.99
2018-01-16T02:04:49.877Z,99.99
2018-01-16T02:05:30.386Z,99.99
2018-01-16T02:06:10.863Z,99.99
2018-01-16T02:06:51.487Z,99.99
2018-01-16T02:07:32.031Z,99.99
2018-01-16T02:08:12.546Z,99.99
2018-01-16T02:08:53.080Z,99.99
2018-01-16T02:09:33.624Z,99.99
2018-01-16T02:10:14.185Z,99.99
2018-01-16T02:10:54.747Z,99.99
2018-01-16T02:11:35.319Z,99.99
2018-01-16T02:12:15.867Z,99.99
2018-01-16T02:12:56.432Z,99.99
2018-01-16T02:13:36.956Z,99.84
2018-01-16T02:14:17.487Z,99.93
2018-01-16T02:14:58.019Z,99.74
2018-01-16T02:15:38.549Z,99.36
2018-01-16T02:16:19.081Z,99.55
2018-01-16T02:16:59.598Z,99.84
2018-01-16T02:17:40.108Z,99.93
2018-01-16T02:18:20.637Z,99.84
2018-01-16T02:19:01.192Z,99.74
2018-01-16T02:19:41.737Z,99.93
2018-01-16T02:20:22.248Z,99.99
2018-01-16T02:21:02.814Z,99.99
2018-01-16T02:21:43.312Z,99.99
2018-01-16T02:22:23.887Z,99.99
2018-01-16T02:23:04.460Z,99.99
2018-01-16T02:23:44.946Z,99.99
2018-01-16T02:24:26.420Z,99.99
2018-01-16T02:25:06.921Z,99.99
2018-01-16T02:25:47.460Z,99.84
2018-01-16T02:26:28.033Z,99.99
2018-01-16T02:27:08.572Z,99.93
2018-01-16T02:27:49.126Z,99.74
2018-01-16T02:28:29.705Z,99.74
2018-01-16T02:29:10.188Z,99.93
2018-01-16T02:29:50.702Z,99.74
2018-01-16T02:30:31.242Z,99.93
2018-01-16T02:31:11.794Z,99.65
2018-01-16T02:31:52.334Z,99.84
2018-01-16T02:32:32.864Z,99.93
2018-01-16T02:33:13.423Z,99.84
2018-01-16T02:33:53.981Z,99.65
2018-01-16T02:34:34.513Z,99.65
2018-01-16T02:35:15.114Z,99.36
2018-01-16T02:35:55.667Z,99.65
2018-01-16T02:36:36.197Z,99.46
2018-01-16T02:37:16.740Z,99.65
2018-01-16T02:37:57.238Z,98.98
2018-01-16T02:38:37.804Z,99.08
2018-01-16T02:39:18.302Z,98.98
2018-01-16T02:39:58.879Z,98.79
2018-01-16T02:40:39.423Z,99.46
2018-01-16T02:41:19.973Z,99.93
2018-01-16T02:42:00.544Z,99.99
2018-01-16T02:42:41.022Z,99.99
2018-01-16T02:43:21.569Z,99.99
2018-01-16T02:44:02.127Z,99.99
2018-01-16T02:44:42.714Z,99.99
2018-01-16T02:45:23.267Z,99.99
2018-01-16T02:46:03.728Z,99.99
2018-01-16T02:46:44.263Z,99.99
2018-01-16T02:47:24.782Z,99.99
2018-01-16T02:48:05.370Z,99.99
2018-01-16T02:48:45.880Z,99.99
2018-01-16T02:49:26.421Z,99.99
2018-01-16T02:50:06.942Z,99.99
2018-01-16T02:50:47.510Z,99.99
2018-01-16T02:51:28.090Z,99.99
2018-01-16T02:52:08.601Z,99.99
2018-01-16T02:52:49.160Z,99.99
2018-01-16T02:53:29.685Z,99.99
2018-01-16T02:54:10.297Z,99.99
2018-01-16T02:54:50.824Z,99.99
2018-01-16T02:55:31.336Z,99.99
2018-01-16T02:56:11.890Z,99.99
2018-01-16T02:56:52.435Z,99.99
2018-01-16T02:57:32.957Z,99.99
2018-01-16T02:58:13.447Z,99.99
2018-01-16T02:58:54.025Z,99.99
2018-01-16T02:59:34.551Z,99.99
2018-01-16T03:00:15.077Z,99.99
2018-01-16T03:00:55.644Z,99.99
2018-01-16T03:01:36.141Z,99.99
2018-01-16T03:02:16.695Z,99.99
2018-01-16T03:02:57.269Z,99.99
2018-01-16T03:03:37.766Z,99.99
2018-01-16T03:04:18.281Z,99.99
2018-01-16T03:04:58.846Z,99.99
2018-01-16T03:05:39.346Z,99.99
2018-01-16T03:06:19.875Z,99.99
2018-01-16T03:07:00.392Z,99.99
2018-01-16T03:07:40.904Z,99.99
2018-01-16T03:08:21.455Z,99.99
2018-01-16T03:09:02.057Z,99.99
2018-01-16T03:09:42.600Z,99.99
2018-01-16T03:10:23.133Z,99.99
2018-01-16T03:11:03.689Z,99.99
2018-01-16T03:11:44.272Z,99.99
2018-01-16T03:12:24.820Z,99.99
2018-01-16T03:13:05.365Z,99.99
2018-01-16T03:13:45.925Z,99.99
2018-01-16T03:14:26.463Z,99.99
2018-01-16T03:15:07.013Z,99.99
2018-01-16T03:15:47.585Z,99.99
2018-01-16T03:16:28.048Z,99.99
2018-01-16T03:17:08.594Z,99.99
2018-01-16T03:17:49.072Z,99.99
2018-01-16T03:18:29.655Z,99.99
2018-01-16T03:19:10.196Z,99.99
2018-01-16T03:19:50.734Z,99.99
2018-01-16T03:20:31.265Z,99.99
2018-01-16T03:21:11.813Z,99.99
2018-01-16T03:21:52.363Z,99.99
2018-01-16T03:22:32.867Z,99.99
2018-01-16T03:23:13.423Z,99.99
2018-01-16T03:23:53.968Z,99.99
2018-01-16T03:24:34.535Z,99.99
2018-01-16T03:25:15.162Z,99.99
2018-01-16T03:25:55.638Z,99.99
2018-01-16T03:26:36.173Z,99.99
2018-01-16T03:27:16.698Z,99.99
2018-01-16T03:27:57.232Z,99.99
2018-01-16T03:28:37.741Z,99.99
2018-01-16T03:29:18.354Z,99.99
2018-01-16T03:29:58.903Z,99.99
2018-01-16T03:30:39.414Z,99.99
2018-01-16T03:31:19.993Z,99.99
2018-01-16T03:32:00.482Z,99.99
2018-01-16T03:32:41.030Z,99.99
2018-01-16T03:33:21.603Z,99.99
2018-01-16T03:34:02.098Z,99.99
2018-01-16T03:34:42.643Z,99.99
2018-01-16T03:35:23.169Z,99.99
2018-01-16T03:36:03.807Z,99.99
2018-01-16T03:36:44.339Z,99.99
2018-01-16T03:37:24.876Z,99.99
2018-01-16T03:38:05.476Z,99.99
2018-01-16T03:38:45.918Z,99.99
2018-01-16T03:39:26.467Z,99.99
2018-01-16T03:40:06.984Z,99.99
2018-01-16T03:40:47.568Z,99.99
2018-01-16T03:41:28.142Z,99.99
2018-01-16T03:42:08.700Z,99.99
2018-01-16T03:42:49.230Z,99.99
2018-01-16T03:43:29.795Z,99.99
2018-01-16T03:44:10.406Z,99.99
2018-01-16T03:44:50.908Z,99.99
2018-01-16T03:45:31.408Z,99.99
2018-01-16T03:46:11.925Z,99.99
2018-01-16T03:46:52.419Z,99.99
2018-01-16T03:47:32.934Z,99.99
2018-01-16T03:48:13.479Z,99.99
2018-01-16T03:48:54.047Z,99.99
2018-01-16T03:49:34.631Z,99.99
2018-01-16T03:50:15.189Z,99.99
2018-01-16T03:50:55.758Z,99.99
2018-01-16T03:51:36.262Z,99.99
2018-01-16T03:52:16.859Z,99.99
2018-01-16T03:52:57.402Z,99.99
2018-01-16T03:53:37.960Z,99.99
2018-01-16T03:54:18.482Z,99.99
2018-01-16T03:54:58.981Z,99.99
2018-01-16T03:55:39.502Z,99.99
2018-01-16T03:56:20.045Z,99.99
2018-01-16T03:57:00.579Z,99.99
2018-01-16T03:57:41.171Z,99.99
2018-01-16T03:58:21.644Z,99.99
2018-01-16T03:59:02.158Z,99.99
2018-01-16T03:59:42.767Z,99.99
2018-01-16T04:00:23.246Z,99.99
2018-01-16T04:01:03.794Z,99.99
2018-01-16T04:01:44.334Z,99.99
2018-01-16T04:02:24.843Z,99.99
2018-01-16T04:03:05.383Z,99.99
2018-01-16T04:03:45.923Z,99.99
2018-01-16T04:04:26.469Z,99.99
2018-01-16T04:05:07.055Z,99.99
2018-01-16T04:05:47.610Z,99.99
2018-01-16T04:06:28.123Z,99.99
2018-01-16T04:07:08.607Z,99.99
2018-01-16T04:07:49.161Z,99.99
2018-01-16T04:08:29.693Z,99.99
2018-01-16T04:09:10.213Z,99.99
2018-01-16T04:09:50.759Z,99.99
2018-01-16T04:10:31.266Z,99.99
2018-01-16T04:11:11.798Z,99.99
2018-01-16T04:11:52.365Z,99.99
2018-01-16T04:12:32.940Z,99.99
2018-01-16T04:13:13.437Z,99.99
2018-01-16T04:13:53.992Z,99.99
2018-01-16T04:14:34.530Z,99.99
2018-01-16T04:15:15.087Z,99.99
2018-01-16T04:15:55.592Z,99.99
2018-01-16T04:16:36.153Z,99.99
2018-01-16T04:17:16.666Z,99.99
2018-01-16T04:17:57.203Z,99.99
2018-01-16T04:18:37.722Z,99.99
2018-01-16T04:19:18.250Z,99.99
2018-01-16T04:19:58.753Z,99.99
2018-01-16T04:20:39.326Z,99.99
2018-01-16T04:21:19.885Z,99.99
2018-01-16T04:22:00.380Z,99.99
2018-01-16T04:22:40.921Z,99.99
2018-01-16T04:23:21.401Z,99.99
2018-01-16T04:24:01.924Z,99.99
2018-01-16T04:24:42.456Z,99.99
2018-01-16T04:25:23.035Z,99.99
2018-01-16T04:26:03.606Z,99.99
2018-01-16T04:26:44.140Z,99.99
2018-01-16T04:27:24.677Z,99.99
2018-01-16T04:28:05.242Z,99.99
2018-01-16T04:28:45.751Z,99.99
2018-01-16T04:29:26.413Z,99.99
2018-01-16T04:30:06.839Z,99.99
2018-01-16T04:30:47.410Z,99.99
2018-01-16T04:31:27.963Z,99.99
2018-01-16T04:32:08.465Z,99.99
2018-01-16T04:33:56.545Z,99.99
2018-01-16T04:34:37.076Z,99.99
2018-01-16T04:35:17.756Z,99.99
2018-01-16T04:35:58.450Z,99.99
2018-01-16T04:36:39.009Z,99.99
2018-01-16T04:37:19.537Z,99.99
2018-01-16T04:38:00.071Z,99.99
2018-01-16T04:38:40.640Z,99.99
2018-01-16T04:39:21.152Z,99.99
2018-01-16T04:40:01.711Z,99.99
2018-01-16T04:40:42.243Z,99.99
2018-01-16T04:41:22.788Z,99.99
2018-01-16T04:42:03.276Z,99.99
2018-01-16T04:42:43.816Z,99.99
2018-01-16T04:43:24.335Z,99.99
2018-01-16T04:44:04.950Z,99.99
2018-01-16T04:44:45.493Z,99.99
2018-01-16T04:45:25.996Z,99.99
2018-01-16T04:46:06.498Z,99.99
2018-01-16T04:46:47.131Z,99.99
2018-01-16T04:47:27.678Z,99.99
2018-01-16T04:48:08.341Z,99.99
2018-01-16T04:48:48.857Z,99.99
2018-01-16T04:49:29.456Z,99.99
2018-01-16T04:50:09.912Z,99.99
2018-01-16T04:50:50.477Z,99.99
2018-01-16T04:51:31.027Z,99.99
2018-01-16T04:52:11.589Z,99.99
2018-01-16T04:52:52.135Z,99.99
2018-01-16T04:53:32.649Z,99.99
2018-01-16T04:54:13.200Z,99.99
2018-01-16T04:54:53.734Z,99.99
2018-01-16T04:55:34.259Z,99.99
2018-01-16T04:56:14.844Z,99.99
2018-01-16T04:56:55.415Z,99.99
2018-01-16T04:57:35.922Z,99.99
2018-01-16T04:58:16.467Z,99.99
2018-01-16T04:58:57.049Z,99.99
2018-01-16T04:59:37.593Z,99.99
2018-01-16T05:00:18.136Z,99.99
2018-01-16T05:00:58.675Z,99.99
2018-01-16T05:01:39.165Z,99.99
2018-01-16T05:02:19.715Z,99.99
2018-01-16T05:03:00.263Z,99.99
2018-01-16T05:03:40.818Z,99.99
2018-01-16T05:04:21.378Z,99.99
2018-01-16T05:05:01.950Z,99.99
2018-01-16T05:05:42.467Z,99.99
2018-01-16T05:06:23.006Z,99.99
2018-01-16T05:07:03.554Z,99.99
2018-01-16T05:07:44.100Z,99.99
2018-01-16T05:08:24.630Z,99.99
2018-01-16T05:09:05.206Z,99.99
2018-01-16T05:09:45.750Z,99.99
2018-01-16T05:10:26.361Z,99.99
2018-01-16T05:11:06.856Z,99.99
2018-01-16T05:11:47.390Z,99.99
2018-01-16T05:12:27.895Z,99.99
2018-01-16T05:13:08.418Z,99.99
2018-01-16T05:13:48.964Z,99.99
2018-01-16T05:14:29.515Z,99.99
2018-01-16T05:15:10.084Z,99.99
2018-01-16T05:15:50.610Z,99.99
2018-01-16T05:16:31.127Z,99.99
2018-01-16T05:17:11.620Z,99.99
2018-01-16T05:17:52.163Z,99.99
2018-01-16T05:18:32.718Z,99.99
2018-01-16T05:19:13.254Z,99.99
2018-01-16T05:19:53.803Z,99.99
2018-01-16T05:20:34.341Z,99.99
2018-01-16T05:21:14.876Z,99.99
2018-01-16T05:21:55.440Z,99.99
2018-01-16T05:22:35.924Z,99.99
2018-01-16T05:23:16.496Z,99.99
2018-01-16T05:23:57.016Z,99.99
2018-01-16T05:24:37.599Z,99.99
2018-01-16T05:25:18.109Z,99.99
2018-01-16T05:25:58.576Z,99.99
2018-01-16T05:26:39.086Z,99.99
2018-01-16T05:27:19.634Z,99.99
2018-01-16T05:28:00.164Z,99.99
2018-01-16T05:28:40.666Z,99.99
2018-01-16T05:29:21.210Z,99.99
2018-01-16T05:30:01.762Z,99.99
2018-01-16T05:30:42.255Z,99.99
2018-01-16T05:31:22.769Z,99.99
2018-01-16T05:32:03.317Z,99.99
2018-01-16T05:32:43.847Z,99.99
2018-01-16T05:33:25.084Z,99.99
2018-01-16T05:34:04.855Z,99.99
2018-01-16T05:34:45.390Z,99.99
2018-01-16T05:35:25.973Z,99.99
2018-01-16T05:36:06.535Z,99.99
2018-01-16T05:36:47.111Z,99.99
2018-01-16T05:37:27.688Z,99.99
2018-01-16T05:38:08.251Z,99.99
2018-01-16T05:38:48.796Z,99.99
2018-01-16T05:39:29.356Z,99.99
2018-01-16T05:40:09.857Z,99.99
2018-01-16T05:40:50.439Z,99.99
2018-01-16T05:41:30.940Z,99.99
2018-01-16T05:42:11.461Z,99.99
2018-01-16T05:42:51.948Z,99.99
2018-01-16T05:43:32.487Z,99.99
2018-01-16T05:44:13.010Z,99.99
2018-01-16T05:44:53.568Z,99.99
2018-01-16T05:45:34.076Z,99.99
2018-01-16T05:46:14.606Z,99.99
2018-01-16T05:46:55.205Z,99.99
2018-01-16T05:47:35.711Z,99.99
2018-01-16T05:48:16.262Z,99.99
2018-01-16T05:48:56.780Z,99.99
2018-01-16T05:49:37.303Z,99.99
2018-01-16T05:50:17.887Z,99.99
2018-01-16T05:50:58.396Z,99.99
2018-01-16T05:51:39.083Z,99.99
2018-01-16T05:52:19.592Z,99.99
2018-01-16T05:53:00.094Z,99.99
2018-01-16T05:53:40.651Z,99.99
2018-01-16T05:54:21.202Z,99.99
2018-01-16T05:55:01.840Z,99.99
2018-01-16T05:55:42.374Z,99.99
2018-01-16T05:56:22.939Z,99.99
2018-01-16T05:57:03.435Z,99.99
2018-01-16T05:57:44.030Z,99.99
2018-01-16T05:58:24.555Z,99.99
2018-01-16T05:59:05.090Z,99.99
2018-01-16T06:00:43.271Z,99.99
2018-01-16T06:01:23.811Z,99.99
2018-01-16T06:02:04.305Z,99.99
2018-01-16T06:02:44.837Z,99.99
2018-01-16T06:03:25.410Z,99.99
2018-01-16T06:04:06.006Z,99.99
2018-01-16T06:04:46.574Z,99.99
2018-01-16T06:05:27.121Z,99.99
2018-01-16T06:06:07.612Z,99.99
2018-01-16T06:06:48.171Z,99.99
2018-01-16T06:07:28.650Z,99.99
2018-01-16T06:08:09.209Z,99.99
2018-01-16T06:08:49.764Z,99.99
2018-01-16T06:09:30.306Z,99.99
2018-01-16T06:10:10.857Z,99.99
2018-01-16T06:10:51.375Z,99.99
2018-01-16T06:11:31.957Z,99.99
2018-01-16T06:12:12.477Z,99.99
2018-01-16T06:12:53.158Z,99.99
2018-01-16T06:13:33.701Z,99.99
2018-01-16T06:14:14.282Z,99.99
2018-01-16T06:14:54.888Z,99.99
2018-01-16T06:15:35.385Z,99.99
2018-01-16T06:16:15.946Z,99.99
2018-01-16T06:16:56.527Z,99.99
2018-01-16T06:17:37.060Z,99.99
2018-01-16T06:18:17.625Z,99.99
2018-01-16T06:18:58.178Z,99.99
2018-01-16T06:19:38.728Z,99.99
2018-01-16T06:20:19.272Z,99.99
2018-01-16T06:20:59.912Z,99.99
2018-01-16T06:21:40.423Z,99.99
2018-01-16T06:22:20.977Z,99.99
2018-01-16T06:23:01.525Z,99.99
2018-01-16T06:23:42.188Z,99.99
2018-01-16T06:24:22.666Z,99.99
2018-01-16T06:25:03.212Z,99.99
2018-01-16T06:25:43.911Z,99.99
2018-01-16T06:26:24.378Z,99.99
2018-01-16T06:27:04.859Z,99.99
2018-01-16T06:27:45.390Z,99.99
2018-01-16T06:28:26.041Z,99.99
2018-01-16T06:29:06.515Z,99.99
2018-01-16T06:29:47.066Z,99.99
2018-01-16T06:30:27.592Z,99.99
2018-01-16T06:31:08.133Z,99.99
2018-01-16T06:31:48.623Z,99.99
2018-01-16T06:32:29.171Z,99.99
2018-01-16T06:33:09.773Z,99.99
2018-01-16T06:33:50.283Z,99.99
2018-01-16T06:34:30.814Z,99.99
2018-01-16T06:35:11.379Z,99.99
2018-01-16T06:35:51.955Z,99.99
2018-01-16T06:36:32.468Z,99.99
2018-01-16T06:37:13.000Z,99.99
2018-01-16T06:37:53.583Z,99.99
2018-01-16T06:38:34.087Z,99.99
2018-01-16T06:39:14.683Z,99.99
2018-01-16T06:39:55.285Z,99.99
2018-01-16T06:40:35.821Z,99.99
2018-01-16T06:41:16.374Z,99.99
2018-01-16T06:41:56.865Z,99.99
2018-01-16T06:42:37.480Z,99.99
2018-01-16T06:43:18.090Z,99.99
2018-01-16T06:43:58.531Z,99.99
2018-01-16T06:44:39.121Z,99.99
2018-01-16T06:45:19.619Z,99.99
2018-01-16T06:46:00.280Z,99.99
2018-01-16T06:46:41.189Z,99.99
2018-01-16T06:47:21.809Z,99.99
2018-01-16T06:48:02.415Z,99.99
2018-01-16T06:48:42.972Z,99.99
2018-01-16T06:49:23.527Z,99.99
2018-01-16T06:50:04.064Z,99.99
2018-01-16T06:50:44.611Z,99.99
2018-01-16T06:51:25.155Z,99.99
2018-01-16T06:52:05.689Z,99.99
2018-01-16T06:52:46.201Z,99.99
2018-01-16T06:53:26.785Z,99.99
2018-01-16T06:54:07.334Z,99.99
2018-01-16T06:54:47.896Z,99.99
2018-01-16T06:55:28.406Z,99.99
2018-01-16T06:56:08.937Z,99.99
2018-01-16T06:56:49.507Z,99.99
2018-01-16T06:57:30.042Z,99.99
2018-01-16T06:58:10.610Z,99.99
2018-01-16T06:58:51.133Z,99.99
2018-01-16T06:59:31.642Z,99.99
2018-01-16T07:00:12.139Z,99.99
2018-01-16T07:00:52.737Z,99.99
2018-01-16T07:01:33.297Z,99.99
2018-01-16T07:02:13.965Z,99.99
2018-01-16T07:02:54.601Z,99.99
2018-01-16T07:03:35.105Z,99.99
2018-01-16T07:04:15.650Z,99.99
2018-01-16T07:04:56.281Z,99.99
2018-01-16T07:05:36.982Z,99.99
2018-01-16T07:06:18.092Z,99.99
2018-01-16T07:06:58.731Z,99.99
2018-01-16T07:07:39.280Z,99.99
2018-01-16T07:08:19.789Z,99.99
2018-01-16T07:09:00.350Z,99.99
2018-01-16T07:09:40.893Z,99.99
2018-01-16T07:10:21.495Z,99.99
2018-01-16T07:11:02.049Z,99.99
2018-01-16T07:11:42.610Z,99.99
2018-01-16T07:12:23.137Z,99.99
2018-01-16T07:13:03.728Z,99.99
2018-01-16T07:13:44.221Z,99.99
2018-01-16T07:14:24.732Z,99.99
2018-01-16T07:15:05.329Z,99.99
2018-01-16T07:15:45.906Z,99.99
2018-01-16T07:16:26.450Z,99.99
2018-01-16T07:17:07.522Z,99.99
2018-01-16T07:17:47.899Z,99.99
2018-01-16T07:18:28.459Z,99.99
2018-01-16T07:19:09.012Z,99.99
2018-01-16T07:19:49.571Z,99.99
2018-01-16T07:20:30.106Z,99.99
2018-01-16T07:21:10.651Z,99.99
2018-01-16T07:21:51.215Z,99.99
2018-01-16T07:22:31.784Z,99.99
2018-01-16T07:23:12.291Z,99.99
2018-01-16T07:23:52.815Z,99.99
2018-01-16T07:24:33.385Z,99.99
2018-01-16T07:25:13.900Z,99.99
2018-01-16T07:25:54.430Z,99.99
2018-01-16T07:26:34.951Z,99.99
2018-01-16T07:27:15.503Z,99.99
2018-01-16T07:27:56.060Z,99.99
2018-01-16T07:28:36.652Z,99.99
2018-01-16T07:29:17.162Z,99.99
2018-01-16T07:29:57.687Z,99.99
2018-01-16T07:30:38.251Z,99.99
2018-01-16T07:31:18.794Z,99.99
2018-01-16T07:31:59.283Z,99.99
2018-01-16T07:32:39.814Z,99.99
2018-01-16T07:33:20.353Z,99.99
2018-01-16T07:34:00.884Z,99.99
2018-01-16T07:34:41.437Z,99.99
2018-01-16T07:35:21.952Z,99.99
2018-01-16T07:36:02.452Z,99.99
2018-01-16T07:36:43.009Z,99.99
2018-01-16T07:37:23.512Z,99.99
2018-01-16T07:38:04.054Z,99.99
2018-01-16T07:38:44.555Z,99.99
2018-01-16T07:39:25.107Z,99.99
2018-01-16T07:40:05.581Z,99.99
2018-01-16T07:40:46.108Z,99.99
2018-01-16T07:41:26.619Z,99.99
2018-01-16T07:42:07.214Z,99.99
2018-01-16T07:42:47.752Z,99.99
2018-01-16T07:43:28.318Z,99.99
2018-01-16T07:44:08.847Z,99.99
2018-01-16T07:44:49.334Z,99.99
2018-01-16T07:45:29.904Z,99.99
2018-01-16T07:46:10.455Z,99.99
2018-01-16T07:46:51.444Z,99.99
2018-01-16T07:47:31.985Z,99.99
2018-01-16T07:48:12.532Z,99.41
2018-01-16T07:48:53.080Z,99.99
2018-01-16T07:49:34.118Z,99.99
2018-01-16T07:50:14.613Z,99.99
2018-01-16T07:50:55.155Z,99.66
2018-01-16T07:51:35.701Z,97.8
2018-01-16T07:52:16.229Z,98.85
2018-01-16T07:52:56.820Z,99.99
2018-01-16T07:53:37.431Z,99.99
2018-01-16T07:54:17.908Z,99.51
2018-01-16T07:54:58.415Z,97.41
2018-01-16T07:55:39.001Z,96.84
2018-01-16T07:56:19.550Z,97.7
2018-01-16T07:57:00.110Z,99.22
2018-01-16T07:57:40.597Z,99.32
2018-01-16T07:58:21.070Z,98.46
2018-01-16T07:59:01.620Z,98.94
2018-01-16T07:59:42.217Z,99.99
2018-01-16T08:02:00.627Z,99.99
2018-01-16T08:02:41.151Z,99.99
2018-01-16T08:03:21.723Z,99.99
2018-01-16T08:04:02.299Z,99.99
2018-01-16T08:04:42.775Z,99.99
2018-01-16T08:05:23.295Z,99.99
2018-01-16T08:06:03.839Z,99.99
2018-01-16T08:06:44.385Z,99.99
2018-01-16T08:07:24.894Z,99.99
2018-01-16T08:08:05.478Z,99.99
2018-01-16T08:08:45.971Z,99.99
2018-01-16T08:09:26.542Z,99.99
2018-01-16T08:10:07.082Z,99.99
2018-01-16T08:10:47.595Z,99.99
2018-01-16T08:11:28.145Z,99.99
2018-01-16T08:12:08.654Z,99.99
2018-01-16T08:12:49.224Z,99.99
2018-01-16T08:13:29.737Z,99.99
2018-01-16T08:14:10.279Z,99.99
2018-01-16T08:14:50.960Z,99.99
2018-01-16T08:15:31.443Z,99.99
2018-01-16T08:16:11.940Z,99.99
2018-01-16T08:16:52.522Z,99.99
2018-01-16T08:17:33.043Z,99.99
2018-01-16T08:18:13.579Z,99.99
2018-01-16T08:18:54.202Z,99.99
2018-01-16T08:19:34.790Z,99.99
2018-01-16T08:20:15.302Z,99.99
2018-01-16T08:20:55.811Z,99.99
2018-01-16T08:21:36.402Z,99.99
2018-01-16T08:22:16.911Z,99.99
2018-01-16T08:22:57.416Z,99.99
2018-01-16T08:23:37.935Z,99.99
2018-01-16T08:24:18.541Z,99.99
2018-01-16T08:24:59.101Z,99.99
2018-01-16T08:25:39.605Z,99.99
2018-01-16T08:26:20.156Z,99.99
2018-01-16T08:27:00.677Z,99.99
2018-01-16T08:27:41.246Z,99.99
2018-01-16T08:28:21.798Z,99.99
2018-01-16T08:29:02.380Z,99.99
2018-01-16T08:29:42.877Z,99.99
2018-01-16T08:30:23.656Z,98.8
2018-01-16T08:31:04.169Z,99.99
2018-01-16T08:31:44.751Z,99.99
2018-01-16T08:32:25.262Z,99.99
2018-01-16T08:33:06.104Z,99.99
2018-01-16T08:33:48.149Z,99.99
2018-01-16T08:34:28.670Z,99.99
2018-01-16T08:35:09.203Z,99.99
2018-01-16T08:35:49.819Z,99.99
2018-01-16T08:36:30.368Z,99.99
2018-01-16T08:37:10.898Z,99.99
2018-01-16T08:37:51.514Z,99.99
2018-01-16T08:38:32.094Z,99.99
2018-01-16T08:39:12.621Z,99.99
2018-01-16T08:39:53.133Z,99.99
2018-01-16T08:40:33.669Z,99.99
2018-01-16T08:41:14.207Z,99.99
2018-01-16T08:41:54.755Z,99.99
2018-01-16T08:42:35.269Z,99.99
2018-01-16T08:43:15.789Z,99.66
2018-01-16T08:43:56.408Z,97.41
2018-01-16T08:44:36.948Z,99.99
2018-01-16T08:45:17.508Z,99.99
2018-01-16T08:45:58.067Z,99.99